首页
METAR-TAF:

METAR-TAF

机场 :

渥太华麦克唐纳-卡蒂埃国际机场

渥太華, 安大略省, 加拿大

纬度: 45-19N, 经度: 075-40W, 海拔: 116米

当前天气观测

该预报发布于18分钟前的21:00 UTC
风速4节,风向东转东北,在北转东北东转东南之间变化
温度 14°C
湿度 33%
气压 1035 hPa
能見度: 24.1公里
少量云层高于5000英尺
少量云层高于26000英尺

METAR: CYOW 202100Z 06004KT 030V120 15SM FEW050 FEW260 14/M02 A3056 RMK CF1CI1 CF TR CI TR SLP353

时间: 17:18 (21:18 UTC)

预报

该预报发布于40分钟前的20:38 UTC
预报有效从20日的 21点(UTC)到 21日的 18点(UTC)
风速5节,风向
能見度: 10公里
少量云层高于4000英尺
成为
从 20日的 23点(UTC)到 21日的 01点(UTC)
风速3节,风向多变
从 21日的 0800点(UTC)
风速3节,风向多变
能見度: 10公里
天空无云
几率 30%
从 21日的 08点(UTC)到 21日的 13点(UTC)
能見度: 1.6公里
轻雾
从 21日的 1500点(UTC)
风速7节,风向东南
能見度: 10公里
天空无云
成为
从 21日的 16点(UTC)到 21日的 18点(UTC)
风速7节,风向

TAF: CYOW 202038Z 2021/2118 35005KT P6SM FEW040 BECMG 2023/2101 VRB03KT FM210800 VRB03KT P6SM SKC PROB30 2108/2113 1SM BR FM211500 13007KT P6SM SKC BECMG 2116/2118 18007KT RMK NXT FCST BY 210000Z

超过4000个机场的气象观测和天气预报(METAR&TAF报告)。

可查询的气象台以黄色和红色小点在地图上表示。

将鼠标移到小点上方,可查看气象台名称。

然后点击查看天气观测和预报。

如需切换地图:点击带黑十字的绿色按钮放大地图;点击带横线的绿色按钮缩小地图;或者点击绿色箭头查看邻近地区的地图。


METAR-TAF: